sensor_id;sensor_type;location;lat;lon;timestamp;P1;durP1;ratioP1;P2;durP2;ratioP2
6027;SDS011;3042;43.194;27.646;2022-07-22T00:02:00;11.43;;;7.10;;
6027;SDS011;3042;43.194;27.646;2022-07-22T00:04:29;10.60;;;7.07;;
6027;SDS011;3042;43.194;27.646;2022-07-22T00:06:58;12.33;;;7.90;;
6027;SDS011;3042;43.194;27.646;2022-07-22T00:09:26;22.80;;;8.33;;
6027;SDS011;3042;43.194;27.646;2022-07-22T00:11:53;16.53;;;6.87;;
6027;SDS011;3042;43.194;27.646;2022-07-22T00:14:20;26.67;;;7.17;;
6027;SDS011;3042;43.194;27.646;2022-07-22T00:16:49;22.50;;;6.70;;
6027;SDS011;3042;43.194;27.646;2022-07-22T00:19:17;20.33;;;6.73;;
6027;SDS011;3042;43.194;27.646;2022-07-22T00:21:44;9.30;;;6.77;;
6027;SDS011;3042;43.194;27.646;2022-07-22T00:24:11;6.93;;;5.27;;
6027;SDS011;3042;43.194;27.646;2022-07-22T00:26:39;7.33;;;5.33;;
6027;SDS011;3042;43.194;27.646;2022-07-22T00:29:06;24.20;;;7.17;;
6027;SDS011;3042;43.194;27.646;2022-07-22T00:31:34;8.83;;;5.47;;
6027;SDS011;3042;43.194;27.646;2022-07-22T00:34:03;12.53;;;5.60;;
6027;SDS011;3042;43.194;27.646;2022-07-22T00:36:30;14.00;;;7.83;;
6027;SDS011;3042;43.194;27.646;2022-07-22T00:38:58;35.07;;;7.00;;
6027;SDS011;3042;43.194;27.646;2022-07-22T00:41:25;10.37;;;6.83;;
6027;SDS011;3042;43.194;27.646;2022-07-22T00:43:53;15.63;;;5.57;;
6027;SDS011;3042;43.194;27.646;2022-07-22T00:46:22;11.50;;;5.73;;
6027;SDS011;3042;43.194;27.646;2022-07-22T00:48:50;15.13;;;7.27;;
6027;SDS011;3042;43.194;27.646;2022-07-22T00:51:19;30.77;;;8.20;;
6027;SDS011;3042;43.194;27.646;2022-07-22T00:53:47;19.73;;;8.80;;
6027;SDS011;3042;43.194;27.646;2022-07-22T00:56:16;17.20;;;7.70;;
6027;SDS011;3042;43.194;27.646;2022-07-22T00:58:45;11.73;;;7.83;;
6027;SDS011;3042;43.194;27.646;2022-07-22T01:01:15;9.30;;;7.60;;
6027;SDS011;3042;43.194;27.646;2022-07-22T01:03:50;13.13;;;7.37;;
6027;SDS011;3042;43.194;27.646;2022-07-22T01:06:21;7.43;;;6.73;;
6027;SDS011;3042;43.194;27.646;2022-07-22T01:08:50;13.23;;;7.53;;
6027;SDS011;3042;43.194;27.646;2022-07-22T01:11:19;7.87;;;6.27;;
6027;SDS011;3042;43.194;27.646;2022-07-22T01:13:47;13.50;;;6.23;;
6027;SDS011;3042;43.194;27.646;2022-07-22T01:16:18;8.73;;;6.60;;
6027;SDS011;3042;43.194;27.646;2022-07-22T01:18:46;19.50;;;7.67;;
6027;SDS011;3042;43.194;27.646;2022-07-22T01:21:16;14.73;;;6.97;;
6027;SDS011;3042;43.194;27.646;2022-07-22T01:23:44;17.83;;;6.40;;
6027;SDS011;3042;43.194;27.646;2022-07-22T01:26:13;16.27;;;7.00;;
6027;SDS011;3042;43.194;27.646;2022-07-22T01:28:42;12.10;;;7.03;;
6027;SDS011;3042;43.194;27.646;2022-07-22T01:31:11;17.47;;;6.77;;
6027;SDS011;3042;43.194;27.646;2022-07-22T01:33:40;7.23;;;6.10;;
6027;SDS011;3042;43.194;27.646;2022-07-22T01:36:09;9.07;;;6.73;;
6027;SDS011;3042;43.194;27.646;2022-07-22T01:38:39;18.43;;;7.00;;
6027;SDS011;3042;43.194;27.646;2022-07-22T01:41:07;12.97;;;6.47;;
6027;SDS011;3042;43.194;27.646;2022-07-22T01:43:35;9.27;;;7.13;;
6027;SDS011;3042;43.194;27.646;2022-07-22T01:46:04;16.90;;;6.93;;
6027;SDS011;3042;43.194;27.646;2022-07-22T01:48:32;6.83;;;6.00;;
6027;SDS011;3042;43.194;27.646;2022-07-22T01:51:01;20.23;;;7.43;;
6027;SDS011;3042;43.194;27.646;2022-07-22T01:53:30;11.07;;;7.53;;
6027;SDS011;3042;43.194;27.646;2022-07-22T01:56:00;8.20;;;7.17;;
6027;SDS011;3042;43.194;27.646;2022-07-22T01:58:28;13.63;;;6.60;;
6027;SDS011;3042;43.194;27.646;2022-07-22T02:00:56;15.43;;;8.07;;
6027;SDS011;3042;43.194;27.646;2022-07-22T02:03:24;20.97;;;10.93;;
6027;SDS011;3042;43.194;27.646;2022-07-22T02:05:51;21.13;;;12.60;;
6027;SDS011;3042;43.194;27.646;2022-07-22T02:08:19;18.00;;;11.97;;
6027;SDS011;3042;43.194;27.646;2022-07-22T02:10:48;11.60;;;9.60;;
6027;SDS011;3042;43.194;27.646;2022-07-22T02:13:18;22.87;;;10.40;;
6027;SDS011;3042;43.194;27.646;2022-07-22T02:15:46;16.50;;;11.20;;
6027;SDS011;3042;43.194;27.646;2022-07-22T02:18:14;15.70;;;9.70;;
6027;SDS011;3042;43.194;27.646;2022-07-22T02:20:43;14.00;;;8.60;;
6027;SDS011;3042;43.194;27.646;2022-07-22T02:23:12;21.90;;;8.77;;
6027;SDS011;3042;43.194;27.646;2022-07-22T02:25:40;13.10;;;7.30;;
6027;SDS011;3042;43.194;27.646;2022-07-22T02:28:09;28.17;;;7.87;;
6027;SDS011;3042;43.194;27.646;2022-07-22T02:30:38;18.83;;;7.27;;
6027;SDS011;3042;43.194;27.646;2022-07-22T02:33:06;10.20;;;7.43;;
6027;SDS011;3042;43.194;27.646;2022-07-22T02:35:35;16.20;;;7.57;;
6027;SDS011;3042;43.194;27.646;2022-07-22T02:38:04;22.03;;;6.60;;
6027;SDS011;3042;43.194;27.646;2022-07-22T02:40:32;11.77;;;6.93;;
6027;SDS011;3042;43.194;27.646;2022-07-22T02:43:01;17.30;;;6.87;;
6027;SDS011;3042;43.194;27.646;2022-07-22T02:45:31;21.87;;;8.20;;
6027;SDS011;3042;43.194;27.646;2022-07-22T02:48:01;11.30;;;7.53;;
6027;SDS011;3042;43.194;27.646;2022-07-22T02:50:30;10.87;;;7.97;;
6027;SDS011;3042;43.194;27.646;2022-07-22T02:53:00;12.77;;;6.97;;
6027;SDS011;3042;43.194;27.646;2022-07-22T02:55:27;8.60;;;7.73;;
6027;SDS011;3042;43.194;27.646;2022-07-22T02:57:56;19.93;;;7.30;;
6027;SDS011;3042;43.194;27.646;2022-07-22T03:00:32;12.83;;;7.03;;
6027;SDS011;3042;43.194;27.646;2022-07-22T03:03:08;22.50;;;9.53;;
6027;SDS011;3042;43.194;27.646;2022-07-22T03:05:39;15.20;;;7.27;;
6027;SDS011;3042;43.194;27.646;2022-07-22T03:08:13;11.90;;;6.87;;
6027;SDS011;3042;43.194;27.646;2022-07-22T03:10:43;11.23;;;7.67;;
6027;SDS011;3042;43.194;27.646;2022-07-22T03:13:13;13.80;;;7.60;;
6027;SDS011;3042;43.194;27.646;2022-07-22T03:15:41;13.37;;;8.17;;
6027;SDS011;3042;43.194;27.646;2022-07-22T03:18:11;20.70;;;8.50;;
6027;SDS011;3042;43.194;27.646;2022-07-22T03:20:38;13.83;;;8.40;;
6027;SDS011;3042;43.194;27.646;2022-07-22T03:23:05;20.57;;;8.03;;
6027;SDS011;3042;43.194;27.646;2022-07-22T03:25:33;16.13;;;8.27;;
6027;SDS011;3042;43.194;27.646;2022-07-22T03:28:00;21.93;;;8.97;;
6027;SDS011;3042;43.194;27.646;2022-07-22T03:30:27;13.43;;;8.57;;
6027;SDS011;3042;43.194;27.646;2022-07-22T03:32:55;18.10;;;9.20;;
6027;SDS011;3042;43.194;27.646;2022-07-22T03:35:24;18.23;;;9.53;;
6027;SDS011;3042;43.194;27.646;2022-07-22T03:37:51;25.97;;;10.20;;
6027;SDS011;3042;43.194;27.646;2022-07-22T03:40:19;23.33;;;9.63;;
6027;SDS011;3042;43.194;27.646;2022-07-22T03:42:46;21.77;;;9.20;;
6027;SDS011;3042;43.194;27.646;2022-07-22T03:45:13;22.75;;;10.40;;
6027;SDS011;3042;43.194;27.646;2022-07-22T03:47:41;33.43;;;9.50;;
6027;SDS011;3042;43.194;27.646;2022-07-22T03:50:08;15.80;;;12.50;;
6027;SDS011;3042;43.194;27.646;2022-07-22T03:52:37;28.13;;;11.87;;
6027;SDS011;3042;43.194;27.646;2022-07-22T03:55:05;13.13;;;11.27;;
6027;SDS011;3042;43.194;27.646;2022-07-22T03:57:33;29.70;;;12.73;;
6027;SDS011;3042;43.194;27.646;2022-07-22T04:00:01;16.53;;;13.40;;
6027;SDS011;3042;43.194;27.646;2022-07-22T04:02:29;16.53;;;12.87;;
6027;SDS011;3042;43.194;27.646;2022-07-22T04:04:56;17.83;;;13.07;;
6027;SDS011;3042;43.194;27.646;2022-07-22T04:07:24;18.90;;;13.67;;
6027;SDS011;3042;43.194;27.646;2022-07-22T04:09:52;22.37;;;13.33;;
6027;SDS011;3042;43.194;27.646;2022-07-22T04:12:30;14.17;;;12.00;;
6027;SDS011;3042;43.194;27.646;2022-07-22T04:14:58;18.70;;;13.60;;
6027;SDS011;3042;43.194;27.646;2022-07-22T04:17:26;15.13;;;12.20;;
6027;SDS011;3042;43.194;27.646;2022-07-22T04:19:53;25.53;;;11.67;;
6027;SDS011;3042;43.194;27.646;2022-07-22T04:22:21;10.13;;;8.57;;
6027;SDS011;3042;43.194;27.646;2022-07-22T04:24:48;16.30;;;9.37;;
6027;SDS011;3042;43.194;27.646;2022-07-22T04:27:17;23.27;;;10.23;;
6027;SDS011;3042;43.194;27.646;2022-07-22T04:29:45;17.50;;;8.30;;
6027;SDS011;3042;43.194;27.646;2022-07-22T04:32:12;23.43;;;8.53;;
6027;SDS011;3042;43.194;27.646;2022-07-22T04:34:40;15.43;;;8.00;;
6027;SDS011;3042;43.194;27.646;2022-07-22T04:37:07;18.90;;;7.77;;
6027;SDS011;3042;43.194;27.646;2022-07-22T04:39:35;29.53;;;8.20;;
6027;SDS011;3042;43.194;27.646;2022-07-22T04:42:02;25.13;;;9.10;;
6027;SDS011;3042;43.194;27.646;2022-07-22T04:44:31;21.10;;;8.30;;
6027;SDS011;3042;43.194;27.646;2022-07-22T04:46:59;19.40;;;8.70;;
6027;SDS011;3042;43.194;27.646;2022-07-22T04:49:42;25.70;;;9.93;;
6027;SDS011;3042;43.194;27.646;2022-07-22T04:52:10;27.87;;;8.80;;
6027;SDS011;3042;43.194;27.646;2022-07-22T04:54:37;25.97;;;8.70;;
6027;SDS011;3042;43.194;27.646;2022-07-22T04:57:04;21.17;;;9.60;;
6027;SDS011;3042;43.194;27.646;2022-07-22T04:59:32;16.27;;;8.67;;
6027;SDS011;3042;43.194;27.646;2022-07-22T05:01:59;17.47;;;9.37;;
6027;SDS011;3042;43.194;27.646;2022-07-22T05:04:26;25.37;;;9.17;;
6027;SDS011;3042;43.194;27.646;2022-07-22T05:06:55;15.40;;;8.70;;
6027;SDS011;3042;43.194;27.646;2022-07-22T05:09:22;19.33;;;9.00;;
6027;SDS011;3042;43.194;27.646;2022-07-22T05:11:50;8.83;;;7.97;;
6027;SDS011;3042;43.194;27.646;2022-07-22T05:14:17;14.18;;;9.07;;
6027;SDS011;3042;43.194;27.646;2022-07-22T05:16:45;17.20;;;9.30;;
6027;SDS011;3042;43.194;27.646;2022-07-22T05:19:12;11.77;;;9.50;;
6027;SDS011;3042;43.194;27.646;2022-07-22T05:21:40;19.73;;;9.27;;
6027;SDS011;3042;43.194;27.646;2022-07-22T05:24:09;12.33;;;8.63;;
6027;SDS011;3042;43.194;27.646;2022-07-22T05:26:36;22.43;;;9.53;;
6027;SDS011;3042;43.194;27.646;2022-07-22T05:29:03;29.70;;;10.00;;
6027;SDS011;3042;43.194;27.646;2022-07-22T05:31:30;8.17;;;7.47;;
6027;SDS011;3042;43.194;27.646;2022-07-22T05:33:58;15.83;;;8.90;;
6027;SDS011;3042;43.194;27.646;2022-07-22T05:36:26;15.43;;;7.57;;
6027;SDS011;3042;43.194;27.646;2022-07-22T05:38:53;11.90;;;8.50;;
6027;SDS011;3042;43.194;27.646;2022-07-22T05:41:22;15.20;;;8.30;;
6027;SDS011;3042;43.194;27.646;2022-07-22T05:43:49;17.47;;;7.20;;
6027;SDS011;3042;43.194;27.646;2022-07-22T05:46:16;16.80;;;7.57;;
6027;SDS011;3042;43.194;27.646;2022-07-22T05:48:43;9.73;;;7.50;;
6027;SDS011;3042;43.194;27.646;2022-07-22T05:51:11;11.70;;;7.80;;
6027;SDS011;3042;43.194;27.646;2022-07-22T05:53:39;9.37;;;7.80;;
6027;SDS011;3042;43.194;27.646;2022-07-22T05:56:07;19.17;;;8.43;;
6027;SDS011;3042;43.194;27.646;2022-07-22T05:58:37;11.37;;;8.37;;
6027;SDS011;3042;43.194;27.646;2022-07-22T06:01:05;15.80;;;8.90;;
6027;SDS011;3042;43.194;27.646;2022-07-22T06:03:32;21.57;;;7.83;;
6027;SDS011;3042;43.194;27.646;2022-07-22T06:06:00;8.80;;;8.00;;
6027;SDS011;3042;43.194;27.646;2022-07-22T06:08:30;19.13;;;8.90;;
6027;SDS011;3042;43.194;27.646;2022-07-22T06:10:58;15.68;;;8.77;;
6027;SDS011;3042;43.194;27.646;2022-07-22T06:13:25;14.20;;;8.30;;
6027;SDS011;3042;43.194;27.646;2022-07-22T06:15:54;12.10;;;8.10;;
6027;SDS011;3042;43.194;27.646;2022-07-22T06:18:22;8.40;;;7.60;;
6027;SDS011;3042;43.194;27.646;2022-07-22T06:20:49;16.13;;;7.93;;
6027;SDS011;3042;43.194;27.646;2022-07-22T06:23:17;13.00;;;7.77;;
6027;SDS011;3042;43.194;27.646;2022-07-22T06:25:44;13.10;;;8.70;;
6027;SDS011;3042;43.194;27.646;2022-07-22T06:28:12;19.63;;;8.00;;
6027;SDS011;3042;43.194;27.646;2022-07-22T06:30:39;35.53;;;8.23;;
6027;SDS011;3042;43.194;27.646;2022-07-22T06:33:08;17.50;;;8.37;;
6027;SDS011;3042;43.194;27.646;2022-07-22T06:35:37;28.90;;;8.87;;
6027;SDS011;3042;43.194;27.646;2022-07-22T06:38:06;32.00;;;7.27;;
6027;SDS011;3042;43.194;27.646;2022-07-22T06:40:33;12.43;;;6.83;;
6027;SDS011;3042;43.194;27.646;2022-07-22T06:43:01;12.43;;;7.13;;
6027;SDS011;3042;43.194;27.646;2022-07-22T06:45:29;25.83;;;7.50;;
6027;SDS011;3042;43.194;27.646;2022-07-22T06:47:57;9.00;;;6.83;;
6027;SDS011;3042;43.194;27.646;2022-07-22T06:50:26;16.80;;;7.10;;
6027;SDS011;3042;43.194;27.646;2022-07-22T06:52:53;13.47;;;7.30;;
6027;SDS011;3042;43.194;27.646;2022-07-22T06:55:21;19.20;;;7.43;;
6027;SDS011;3042;43.194;27.646;2022-07-22T06:57:48;18.70;;;7.10;;
6027;SDS011;3042;43.194;27.646;2022-07-22T07:00:15;38.27;;;7.77;;
6027;SDS011;3042;43.194;27.646;2022-07-22T07:02:44;10.67;;;6.60;;
6027;SDS011;3042;43.194;27.646;2022-07-22T07:05:12;10.10;;;6.37;;
6027;SDS011;3042;43.194;27.646;2022-07-22T07:07:41;9.27;;;5.27;;
6027;SDS011;3042;43.194;27.646;2022-07-22T07:10:08;10.83;;;5.50;;
6027;SDS011;3042;43.194;27.646;2022-07-22T07:12:37;10.10;;;4.90;;
6027;SDS011;3042;43.194;27.646;2022-07-22T07:15:05;18.00;;;5.20;;
6027;SDS011;3042;43.194;27.646;2022-07-22T07:17:33;8.40;;;4.10;;
6027;SDS011;3042;43.194;27.646;2022-07-22T07:20:00;5.23;;;2.90;;
6027;SDS011;3042;43.194;27.646;2022-07-22T07:22:27;7.30;;;2.60;;
6027;SDS011;3042;43.194;27.646;2022-07-22T07:24:56;7.10;;;3.40;;
6027;SDS011;3042;43.194;27.646;2022-07-22T07:27:27;5.97;;;2.40;;
6027;SDS011;3042;43.194;27.646;2022-07-22T07:29:55;6.50;;;2.67;;
6027;SDS011;3042;43.194;27.646;2022-07-22T07:32:22;3.43;;;2.17;;
6027;SDS011;3042;43.194;27.646;2022-07-22T07:34:49;4.17;;;2.90;;
6027;SDS011;3042;43.194;27.646;2022-07-22T07:37:17;5.73;;;2.30;;
6027;SDS011;3042;43.194;27.646;2022-07-22T07:39:44;4.53;;;2.53;;
6027;SDS011;3042;43.194;27.646;2022-07-22T07:42:13;14.50;;;3.60;;
6027;SDS011;3042;43.194;27.646;2022-07-22T07:44:40;6.80;;;2.80;;
6027;SDS011;3042;43.194;27.646;2022-07-22T07:47:08;7.77;;;2.80;;
6027;SDS011;3042;43.194;27.646;2022-07-22T07:49:35;8.33;;;3.10;;
6027;SDS011;3042;43.194;27.646;2022-07-22T07:52:02;5.00;;;2.30;;
6027;SDS011;3042;43.194;27.646;2022-07-22T07:54:30;10.23;;;3.47;;
6027;SDS011;3042;43.194;27.646;2022-07-22T07:56:57;10.10;;;2.20;;
6027;SDS011;3042;43.194;27.646;2022-07-22T07:59:26;25.50;;;4.30;;
6027;SDS011;3042;43.194;27.646;2022-07-22T08:01:53;28.83;;;5.03;;
6027;SDS011;3042;43.194;27.646;2022-07-22T08:04:21;1.87;;;1.70;;
6027;SDS011;3042;43.194;27.646;2022-07-22T08:06:48;6.10;;;2.20;;
6027;SDS011;3042;43.194;27.646;2022-07-22T08:09:15;6.50;;;2.13;;
6027;SDS011;3042;43.194;27.646;2022-07-22T08:11:42;5.47;;;2.63;;
6027;SDS011;3042;43.194;27.646;2022-07-22T08:14:10;37.67;;;4.10;;
6027;SDS011;3042;43.194;27.646;2022-07-22T08:16:39;15.97;;;2.87;;
6027;SDS011;3042;43.194;27.646;2022-07-22T08:19:06;8.73;;;3.20;;
6027;SDS011;3042;43.194;27.646;2022-07-22T08:21:34;5.67;;;2.00;;
6027;SDS011;3042;43.194;27.646;2022-07-22T08:24:01;7.13;;;1.60;;
6027;SDS011;3042;43.194;27.646;2022-07-22T08:26:28;4.00;;;1.20;;
6027;SDS011;3042;43.194;27.646;2022-07-22T08:28:56;11.23;;;1.80;;
6027;SDS011;3042;43.194;27.646;2022-07-22T08:31:23;11.07;;;2.83;;
6027;SDS011;3042;43.194;27.646;2022-07-22T08:33:52;17.70;;;3.30;;
6027;SDS011;3042;43.194;27.646;2022-07-22T08:36:19;11.03;;;2.13;;
6027;SDS011;3042;43.194;27.646;2022-07-22T08:38:47;12.73;;;3.10;;
6027;SDS011;3042;43.194;27.646;2022-07-22T08:41:14;1.27;;;1.17;;
6027;SDS011;3042;43.194;27.646;2022-07-22T08:43:42;3.50;;;1.20;;
6027;SDS011;3042;43.194;27.646;2022-07-22T08:46:09;20.53;;;3.27;;
6027;SDS011;3042;43.194;27.646;2022-07-22T08:48:37;6.60;;;4.57;;
6027;SDS011;3042;43.194;27.646;2022-07-22T08:51:06;9.37;;;1.53;;
6027;SDS011;3042;43.194;27.646;2022-07-22T08:53:33;11.97;;;2.47;;
6027;SDS011;3042;43.194;27.646;2022-07-22T08:56:01;6.90;;;1.80;;
6027;SDS011;3042;43.194;27.646;2022-07-22T08:58:28;8.80;;;1.90;;
6027;SDS011;3042;43.194;27.646;2022-07-22T09:01:06;7.10;;;1.77;;
6027;SDS011;3042;43.194;27.646;2022-07-22T09:03:43;8.13;;;2.30;;
6027;SDS011;3042;43.194;27.646;2022-07-22T09:06:13;8.00;;;1.63;;
6027;SDS011;3042;43.194;27.646;2022-07-22T09:08:52;2.00;;;1.40;;
6027;SDS011;3042;43.194;27.646;2022-07-22T09:11:21;4.93;;;1.73;;
6027;SDS011;3042;43.194;27.646;2022-07-22T09:13:49;10.77;;;2.10;;
6027;SDS011;3042;43.194;27.646;2022-07-22T09:16:21;8.60;;;2.57;;
6027;SDS011;3042;43.194;27.646;2022-07-22T09:19:04;8.93;;;1.90;;
6027;SDS011;3042;43.194;27.646;2022-07-22T09:21:35;2.50;;;1.63;;
6027;SDS011;3042;43.194;27.646;2022-07-22T09:24:04;1.83;;;1.67;;
6027;SDS011;3042;43.194;27.646;2022-07-22T09:26:33;13.23;;;2.20;;
6027;SDS011;3042;43.194;27.646;2022-07-22T09:29:02;2.80;;;1.43;;
6027;SDS011;3042;43.194;27.646;2022-07-22T09:31:32;11.67;;;2.50;;
6027;SDS011;3042;43.194;27.646;2022-07-22T09:34:00;3.47;;;2.57;;
6027;SDS011;3042;43.194;27.646;2022-07-22T09:36:28;3.57;;;1.70;;
6027;SDS011;3042;43.194;27.646;2022-07-22T09:38:58;2.23;;;1.50;;
6027;SDS011;3042;43.194;27.646;2022-07-22T09:41:25;6.60;;;1.90;;
6027;SDS011;3042;43.194;27.646;2022-07-22T09:43:52;6.37;;;1.87;;
6027;SDS011;3042;43.194;27.646;2022-07-22T09:46:32;8.93;;;2.70;;
6027;SDS011;3042;43.194;27.646;2022-07-22T09:49:02;7.93;;;1.93;;
6027;SDS011;3042;43.194;27.646;2022-07-22T09:51:29;13.70;;;3.10;;
6027;SDS011;3042;43.194;27.646;2022-07-22T09:53:58;11.90;;;2.80;;
6027;SDS011;3042;43.194;27.646;2022-07-22T09:56:26;10.43;;;2.23;;
6027;SDS011;3042;43.194;27.646;2022-07-22T09:58:55;4.87;;;1.70;;
6027;SDS011;3042;43.194;27.646;2022-07-22T10:01:23;1.63;;;1.27;;
6027;SDS011;3042;43.194;27.646;2022-07-22T10:03:51;9.07;;;2.20;;
6027;SDS011;3042;43.194;27.646;2022-07-22T10:06:21;7.53;;;2.57;;
6027;SDS011;3042;43.194;27.646;2022-07-22T10:08:49;9.37;;;2.67;;
6027;SDS011;3042;43.194;27.646;2022-07-22T10:11:19;7.10;;;1.50;;
6027;SDS011;3042;43.194;27.646;2022-07-22T10:13:46;7.40;;;2.53;;
6027;SDS011;3042;43.194;27.646;2022-07-22T10:16:15;1.43;;;1.33;;
6027;SDS011;3042;43.194;27.646;2022-07-22T10:18:44;45.20;;;4.70;;
6027;SDS011;3042;43.194;27.646;2022-07-22T10:21:12;12.23;;;2.10;;
6027;SDS011;3042;43.194;27.646;2022-07-22T10:26:49;5.00;;;1.93;;
6027;SDS011;3042;43.194;27.646;2022-07-22T10:29:23;5.90;;;2.43;;
6027;SDS011;3042;43.194;27.646;2022-07-22T10:37:53;21.00;;;3.10;;
6027;SDS011;3042;43.194;27.646;2022-07-22T10:40:23;5.93;;;1.30;;
6027;SDS011;3042;43.194;27.646;2022-07-22T10:43:05;2.40;;;1.40;;
6027;SDS011;3042;43.194;27.646;2022-07-22T10:45:37;29.67;;;4.87;;
6027;SDS011;3042;43.194;27.646;2022-07-22T10:48:07;14.87;;;3.50;;
6027;SDS011;3042;43.194;27.646;2022-07-22T10:50:43;7.87;;;2.20;;
6027;SDS011;3042;43.194;27.646;2022-07-22T10:53:21;6.30;;;1.40;;
6027;SDS011;3042;43.194;27.646;2022-07-22T10:58:48;5.03;;;2.30;;
6027;SDS011;3042;43.194;27.646;2022-07-22T11:01:19;10.48;;;2.20;;
6027;SDS011;3042;43.194;27.646;2022-07-22T11:03:48;6.50;;;2.33;;
6027;SDS011;3042;43.194;27.646;2022-07-22T11:06:17;4.83;;;1.97;;
6027;SDS011;3042;43.194;27.646;2022-07-22T11:08:48;7.90;;;3.67;;
6027;SDS011;3042;43.194;27.646;2022-07-22T11:11:16;26.97;;;3.37;;
6027;SDS011;3042;43.194;27.646;2022-07-22T11:13:44;8.13;;;1.50;;
6027;SDS011;3042;43.194;27.646;2022-07-22T11:16:20;7.73;;;1.97;;
6027;SDS011;3042;43.194;27.646;2022-07-22T11:18:49;20.73;;;2.40;;
6027;SDS011;3042;43.194;27.646;2022-07-22T11:21:18;6.80;;;1.37;;
6027;SDS011;3042;43.194;27.646;2022-07-22T11:23:47;5.90;;;1.90;;
6027;SDS011;3042;43.194;27.646;2022-07-22T11:26:16;8.00;;;2.30;;
6027;SDS011;3042;43.194;27.646;2022-07-22T11:28:45;19.90;;;2.63;;
6027;SDS011;3042;43.194;27.646;2022-07-22T11:31:16;13.23;;;3.70;;
6027;SDS011;3042;43.194;27.646;2022-07-22T11:33:46;14.80;;;3.47;;
6027;SDS011;3042;43.194;27.646;2022-07-22T11:36:13;1.77;;;1.30;;
6027;SDS011;3042;43.194;27.646;2022-07-22T11:38:45;6.28;;;1.90;;
6027;SDS011;3042;43.194;27.646;2022-07-22T11:41:14;1.73;;;1.30;;
6027;SDS011;3042;43.194;27.646;2022-07-22T11:43:43;8.30;;;1.73;;
6027;SDS011;3042;43.194;27.646;2022-07-22T11:46:12;14.13;;;1.90;;
6027;SDS011;3042;43.194;27.646;2022-07-22T11:48:40;7.22;;;1.98;;
6027;SDS011;3042;43.194;27.646;2022-07-22T11:51:11;8.23;;;1.47;;
6027;SDS011;3042;43.194;27.646;2022-07-22T11:53:40;14.93;;;2.00;;
6027;SDS011;3042;43.194;27.646;2022-07-22T11:56:08;15.10;;;2.33;;
6027;SDS011;3042;43.194;27.646;2022-07-22T11:58:41;2.73;;;1.40;;
6027;SDS011;3042;43.194;27.646;2022-07-22T12:01:10;10.77;;;1.10;;
6027;SDS011;3042;43.194;27.646;2022-07-22T12:03:39;8.70;;;2.30;;
6027;SDS011;3042;43.194;27.646;2022-07-22T12:06:13;6.63;;;1.50;;
6027;SDS011;3042;43.194;27.646;2022-07-22T12:08:42;3.63;;;1.47;;
6027;SDS011;3042;43.194;27.646;2022-07-22T12:11:14;10.53;;;2.13;;
6027;SDS011;3042;43.194;27.646;2022-07-22T12:13:43;3.17;;;2.17;;
6027;SDS011;3042;43.194;27.646;2022-07-22T12:16:18;39.97;;;4.55;;
6027;SDS011;3042;43.194;27.646;2022-07-22T12:18:52;11.73;;;1.93;;
6027;SDS011;3042;43.194;27.646;2022-07-22T12:21:23;12.00;;;2.00;;
6027;SDS011;3042;43.194;27.646;2022-07-22T12:23:53;5.93;;;1.40;;
6027;SDS011;3042;43.194;27.646;2022-07-22T12:26:41;3.73;;;1.67;;
6027;SDS011;3042;43.194;27.646;2022-07-22T12:29:14;3.93;;;1.67;;
6027;SDS011;3042;43.194;27.646;2022-07-22T12:31:43;13.70;;;2.50;;
6027;SDS011;3042;43.194;27.646;2022-07-22T12:34:11;19.23;;;3.67;;
6027;SDS011;3042;43.194;27.646;2022-07-22T12:36:41;1.07;;;0.97;;
6027;SDS011;3042;43.194;27.646;2022-07-22T12:39:11;5.30;;;1.70;;
6027;SDS011;3042;43.194;27.646;2022-07-22T12:41:44;8.43;;;1.97;;
6027;SDS011;3042;43.194;27.646;2022-07-22T12:44:16;7.13;;;1.77;;
6027;SDS011;3042;43.194;27.646;2022-07-22T12:46:45;9.03;;;2.67;;
6027;SDS011;3042;43.194;27.646;2022-07-22T12:49:14;5.93;;;1.40;;
6027;SDS011;3042;43.194;27.646;2022-07-22T12:54:32;12.60;;;1.87;;
6027;SDS011;3042;43.194;27.646;2022-07-22T12:57:00;41.73;;;3.30;;
6027;SDS011;3042;43.194;27.646;2022-07-22T12:59:27;7.60;;;1.07;;
6027;SDS011;3042;43.194;27.646;2022-07-22T13:01:55;5.97;;;2.00;;
6027;SDS011;3042;43.194;27.646;2022-07-22T13:04:22;10.60;;;2.40;;
6027;SDS011;3042;43.194;27.646;2022-07-22T13:06:49;14.40;;;2.47;;
6027;SDS011;3042;43.194;27.646;2022-07-22T13:09:18;7.40;;;1.63;;
6027;SDS011;3042;43.194;27.646;2022-07-22T13:11:46;21.03;;;3.13;;
6027;SDS011;3042;43.194;27.646;2022-07-22T13:14:13;29.43;;;3.00;;
6027;SDS011;3042;43.194;27.646;2022-07-22T13:16:41;30.23;;;3.87;;
6027;SDS011;3042;43.194;27.646;2022-07-22T13:19:08;42.23;;;3.30;;
6027;SDS011;3042;43.194;27.646;2022-07-22T13:21:35;34.03;;;5.60;;
6027;SDS011;3042;43.194;27.646;2022-07-22T13:24:03;5.17;;;1.43;;
6027;SDS011;3042;43.194;27.646;2022-07-22T13:26:32;16.30;;;3.13;;
6027;SDS011;3042;43.194;27.646;2022-07-22T13:29:00;10.30;;;2.80;;
6027;SDS011;3042;43.194;27.646;2022-07-22T13:31:27;2.60;;;1.10;;
6027;SDS011;3042;43.194;27.646;2022-07-22T13:33:56;14.83;;;2.20;;
6027;SDS011;3042;43.194;27.646;2022-07-22T13:36:23;2.00;;;1.13;;
6027;SDS011;3042;43.194;27.646;2022-07-22T13:38:53;8.43;;;1.00;;
6027;SDS011;3042;43.194;27.646;2022-07-22T13:41:21;5.57;;;1.80;;
6027;SDS011;3042;43.194;27.646;2022-07-22T13:43:49;6.93;;;2.27;;
6027;SDS011;3042;43.194;27.646;2022-07-22T13:46:17;14.87;;;2.20;;
6027;SDS011;3042;43.194;27.646;2022-07-22T13:48:44;18.20;;;3.17;;
6027;SDS011;3042;43.194;27.646;2022-07-22T13:51:12;1.60;;;1.20;;
6027;SDS011;3042;43.194;27.646;2022-07-22T13:53:39;4.40;;;1.33;;
6027;SDS011;3042;43.194;27.646;2022-07-22T13:56:07;6.30;;;1.07;;
6027;SDS011;3042;43.194;27.646;2022-07-22T13:58:37;7.37;;;1.50;;
6027;SDS011;3042;43.194;27.646;2022-07-22T14:01:07;6.67;;;1.73;;
6027;SDS011;3042;43.194;27.646;2022-07-22T14:03:35;10.20;;;1.60;;
6027;SDS011;3042;43.194;27.646;2022-07-22T14:06:03;5.73;;;1.60;;
6027;SDS011;3042;43.194;27.646;2022-07-22T14:08:31;6.07;;;1.30;;
6027;SDS011;3042;43.194;27.646;2022-07-22T14:10:58;3.60;;;1.97;;
6027;SDS011;3042;43.194;27.646;2022-07-22T14:13:26;9.53;;;1.30;;
6027;SDS011;3042;43.194;27.646;2022-07-22T14:15:54;12.33;;;1.67;;
6027;SDS011;3042;43.194;27.646;2022-07-22T14:18:23;5.87;;;2.03;;
6027;SDS011;3042;43.194;27.646;2022-07-22T14:20:50;1.40;;;1.30;;
6027;SDS011;3042;43.194;27.646;2022-07-22T14:23:17;4.23;;;1.30;;
6027;SDS011;3042;43.194;27.646;2022-07-22T14:25:48;1.87;;;1.00;;
6027;SDS011;3042;43.194;27.646;2022-07-22T14:28:15;3.77;;;1.80;;
6027;SDS011;3042;43.194;27.646;2022-07-22T14:30:43;7.23;;;1.60;;
6027;SDS011;3042;43.194;27.646;2022-07-22T14:33:10;12.10;;;1.73;;
6027;SDS011;3042;43.194;27.646;2022-07-22T14:35:39;4.63;;;1.43;;
6027;SDS011;3042;43.194;27.646;2022-07-22T14:38:06;3.35;;;1.65;;
6027;SDS011;3042;43.194;27.646;2022-07-22T14:40:33;5.90;;;2.60;;
6027;SDS011;3042;43.194;27.646;2022-07-22T14:43:01;13.90;;;2.17;;
6027;SDS011;3042;43.194;27.646;2022-07-22T14:45:28;5.97;;;2.20;;
6027;SDS011;3042;43.194;27.646;2022-07-22T14:47:56;12.80;;;2.97;;
6027;SDS011;3042;43.194;27.646;2022-07-22T14:50:23;8.50;;;3.10;;
6027;SDS011;3042;43.194;27.646;2022-07-22T14:52:52;10.97;;;3.03;;
6027;SDS011;3042;43.194;27.646;2022-07-22T14:55:19;4.63;;;2.57;;
6027;SDS011;3042;43.194;27.646;2022-07-22T14:57:47;14.33;;;3.10;;
6027;SDS011;3042;43.194;27.646;2022-07-22T15:00:14;16.17;;;2.57;;
6027;SDS011;3042;43.194;27.646;2022-07-22T15:02:42;3.73;;;2.73;;
6027;SDS011;3042;43.194;27.646;2022-07-22T15:05:09;8.00;;;2.20;;
6027;SDS011;3042;43.194;27.646;2022-07-22T15:07:36;3.40;;;2.20;;
6027;SDS011;3042;43.194;27.646;2022-07-22T15:10:05;11.93;;;2.50;;
6027;SDS011;3042;43.194;27.646;2022-07-22T15:12:33;7.33;;;2.40;;
6027;SDS011;3042;43.194;27.646;2022-07-22T15:15:00;2.40;;;2.30;;
6027;SDS011;3042;43.194;27.646;2022-07-22T15:17:28;7.37;;;2.30;;